sensor_id;sensor_type;location;lat;lon;timestamp;temperature;humidity
23207;DHT22;11773;52.570;13.052;2022-09-09T00:01:15;17.50;99.90
23207;DHT22;11773;52.570;13.052;2022-09-09T00:04:03;17.40;99.90
23207;DHT22;11773;52.570;13.052;2022-09-09T00:07:07;17.40;99.90
23207;DHT22;11773;52.570;13.052;2022-09-09T00:10:43;17.30;99.90
23207;DHT22;11773;52.570;13.052;2022-09-09T00:12:37;17.20;99.90
23207;DHT22;11773;52.570;13.052;2022-09-09T00:15:19;17.30;99.90
23207;DHT22;11773;52.570;13.052;2022-09-09T00:21:18;17.20;99.90
23207;DHT22;11773;52.570;13.052;2022-09-09T00:23:52;17.20;99.90
23207;DHT22;11773;52.570;13.052;2022-09-09T00:26:35;17.20;99.90
23207;DHT22;11773;52.570;13.052;2022-09-09T00:31:42;17.10;99.90
23207;DHT22;11773;52.570;13.052;2022-09-09T00:34:14;17.10;99.90
23207;DHT22;11773;52.570;13.052;2022-09-09T00:36:50;17.00;99.90
23207;DHT22;11773;52.570;13.052;2022-09-09T00:40:03;17.10;99.90
23207;DHT22;11773;52.570;13.052;2022-09-09T00:42:26;17.00;99.90
23207;DHT22;11773;52.570;13.052;2022-09-09T00:45:47;16.90;99.90
23207;DHT22;11773;52.570;13.052;2022-09-09T00:48:22;16.90;99.90
23207;DHT22;11773;52.570;13.052;2022-09-09T00:50:57;16.90;99.90
23207;DHT22;11773;52.570;13.052;2022-09-09T00:56:18;16.90;99.90
23207;DHT22;11773;52.570;13.052;2022-09-09T00:59:07;16.80;99.90
23207;DHT22;11773;52.570;13.052;2022-09-09T01:01:35;16.80;99.90
23207;DHT22;11773;52.570;13.052;2022-09-09T01:04:10;16.70;99.90
23207;DHT22;11773;52.570;13.052;2022-09-09T01:06:43;16.70;99.90
23207;DHT22;11773;52.570;13.052;2022-09-09T01:09:30;16.70;99.90
23207;DHT22;11773;52.570;13.052;2022-09-09T01:12:23;16.70;99.90
23207;DHT22;11773;52.570;13.052;2022-09-09T01:15:13;16.70;99.90
23207;DHT22;11773;52.570;13.052;2022-09-09T01:18:04;16.70;99.90
23207;DHT22;11773;52.570;13.052;2022-09-09T01:20:54;16.80;99.90
23207;DHT22;11773;52.570;13.052;2022-09-09T01:26:41;16.60;99.90
23207;DHT22;11773;52.570;13.052;2022-09-09T01:29:17;16.60;99.90
23207;DHT22;11773;52.570;13.052;2022-09-09T01:32:01;16.50;99.90
23207;DHT22;11773;52.570;13.052;2022-09-09T01:34:35;16.50;99.90
23207;DHT22;11773;52.570;13.052;2022-09-09T01:37:10;16.50;99.90
23207;DHT22;11773;52.570;13.052;2022-09-09T01:39:43;16.50;99.90
23207;DHT22;11773;52.570;13.052;2022-09-09T01:42:15;16.50;99.90
23207;DHT22;11773;52.570;13.052;2022-09-09T01:44:46;16.40;99.90
23207;DHT22;11773;52.570;13.052;2022-09-09T01:47:16;16.40;99.90
23207;DHT22;11773;52.570;13.052;2022-09-09T01:49:45;16.40;99.90
23207;DHT22;11773;52.570;13.052;2022-09-09T01:52:15;16.40;99.90
23207;DHT22;11773;52.570;13.052;2022-09-09T01:54:44;16.40;99.90
23207;DHT22;11773;52.570;13.052;2022-09-09T01:57:27;16.50;99.90
23207;DHT22;11773;52.570;13.052;2022-09-09T02:02:56;16.40;99.90
23207;DHT22;11773;52.570;13.052;2022-09-09T02:08:09;16.20;99.90
23207;DHT22;11773;52.570;13.052;2022-09-09T02:10:46;16.20;99.90
23207;DHT22;11773;52.570;13.052;2022-09-09T02:13:23;16.20;99.90
23207;DHT22;11773;52.570;13.052;2022-09-09T02:16:00;16.20;99.90
23207;DHT22;11773;52.570;13.052;2022-09-09T02:18:35;16.10;99.90
23207;DHT22;11773;52.570;13.052;2022-09-09T02:21:08;16.20;99.90
23207;DHT22;11773;52.570;13.052;2022-09-09T02:23:42;16.10;99.90
23207;DHT22;11773;52.570;13.052;2022-09-09T02:26:15;16.10;99.90
23207;DHT22;11773;52.570;13.052;2022-09-09T02:28:50;16.20;99.90
23207;DHT22;11773;52.570;13.052;2022-09-09T02:31:23;16.20;99.90
23207;DHT22;11773;52.570;13.052;2022-09-09T02:33:56;16.10;99.90
23207;DHT22;11773;52.570;13.052;2022-09-09T02:36:30;16.00;99.90
23207;DHT22;11773;52.570;13.052;2022-09-09T02:39:04;16.00;99.90
23207;DHT22;11773;52.570;13.052;2022-09-09T02:41:38;16.00;99.90
23207;DHT22;11773;52.570;13.052;2022-09-09T02:44:14;16.00;99.90
23207;DHT22;11773;52.570;13.052;2022-09-09T02:47:21;16.00;99.90
23207;DHT22;11773;52.570;13.052;2022-09-09T02:50:12;15.90;99.90
23207;DHT22;11773;52.570;13.052;2022-09-09T02:53:09;15.90;99.90
23207;DHT22;11773;52.570;13.052;2022-09-09T02:58:39;16.00;99.90
23207;DHT22;11773;52.570;13.052;2022-09-09T03:01:09;15.90;99.90
23207;DHT22;11773;52.570;13.052;2022-09-09T03:03:38;15.90;99.90
23207;DHT22;11773;52.570;13.052;2022-09-09T03:06:09;15.90;99.90
23207;DHT22;11773;52.570;13.052;2022-09-09T03:08:39;15.80;99.90
23207;DHT22;11773;52.570;13.052;2022-09-09T03:11:11;15.70;99.90
23207;DHT22;11773;52.570;13.052;2022-09-09T03:13:41;15.80;99.90
23207;DHT22;11773;52.570;13.052;2022-09-09T03:16:11;15.80;99.90
23207;DHT22;11773;52.570;13.052;2022-09-09T03:18:40;15.70;99.90
23207;DHT22;11773;52.570;13.052;2022-09-09T03:21:10;15.80;99.90
23207;DHT22;11773;52.570;13.052;2022-09-09T03:23:39;15.80;99.90
23207;DHT22;11773;52.570;13.052;2022-09-09T03:26:09;15.90;99.90
23207;DHT22;11773;52.570;13.052;2022-09-09T03:28:38;15.90;99.90
23207;DHT22;11773;52.570;13.052;2022-09-09T03:31:08;15.80;99.90
23207;DHT22;11773;52.570;13.052;2022-09-09T03:33:38;15.80;99.90
23207;DHT22;11773;52.570;13.052;2022-09-09T03:36:09;15.80;99.90
23207;DHT22;11773;52.570;13.052;2022-09-09T03:38:38;15.70;99.90
23207;DHT22;11773;52.570;13.052;2022-09-09T03:41:08;15.70;99.90
23207;DHT22;11773;52.570;13.052;2022-09-09T03:43:37;15.70;99.90
23207;DHT22;11773;52.570;13.052;2022-09-09T03:46:07;15.70;99.90
23207;DHT22;11773;52.570;13.052;2022-09-09T03:48:37;15.70;99.90
23207;DHT22;11773;52.570;13.052;2022-09-09T03:51:06;15.70;99.90
23207;DHT22;11773;52.570;13.052;2022-09-09T03:53:36;15.60;99.90
23207;DHT22;11773;52.570;13.052;2022-09-09T03:56:06;15.60;99.90
23207;DHT22;11773;52.570;13.052;2022-09-09T03:58:37;15.70;99.90
23207;DHT22;11773;52.570;13.052;2022-09-09T04:01:09;15.60;99.90
23207;DHT22;11773;52.570;13.052;2022-09-09T04:03:41;15.60;99.90
23207;DHT22;11773;52.570;13.052;2022-09-09T04:06:13;15.60;99.90
23207;DHT22;11773;52.570;13.052;2022-09-09T04:08:43;15.60;99.90
23207;DHT22;11773;52.570;13.052;2022-09-09T04:11:12;15.50;99.90
23207;DHT22;11773;52.570;13.052;2022-09-09T04:13:42;15.60;99.90
23207;DHT22;11773;52.570;13.052;2022-09-09T04:16:13;15.50;99.90
23207;DHT22;11773;52.570;13.052;2022-09-09T04:18:43;15.40;99.90
23207;DHT22;11773;52.570;13.052;2022-09-09T04:21:13;15.40;99.90
23207;DHT22;11773;52.570;13.052;2022-09-09T04:23:43;15.50;99.90
23207;DHT22;11773;52.570;13.052;2022-09-09T04:26:13;15.50;99.90
23207;DHT22;11773;52.570;13.052;2022-09-09T04:28:42;15.60;99.90
23207;DHT22;11773;52.570;13.052;2022-09-09T04:31:20;15.70;99.90
23207;DHT22;11773;52.570;13.052;2022-09-09T04:33:51;15.50;99.90
23207;DHT22;11773;52.570;13.052;2022-09-09T04:36:21;15.60;99.90
23207;DHT22;11773;52.570;13.052;2022-09-09T04:38:51;15.70;99.90
23207;DHT22;11773;52.570;13.052;2022-09-09T04:41:20;15.60;99.90
23207;DHT22;11773;52.570;13.052;2022-09-09T04:43:51;15.50;99.90
23207;DHT22;11773;52.570;13.052;2022-09-09T04:46:22;15.50;99.90
23207;DHT22;11773;52.570;13.052;2022-09-09T04:48:52;15.40;99.90
23207;DHT22;11773;52.570;13.052;2022-09-09T04:51:21;15.50;99.90
23207;DHT22;11773;52.570;13.052;2022-09-09T04:53:51;15.40;99.90
23207;DHT22;11773;52.570;13.052;2022-09-09T04:56:21;15.40;99.90
23207;DHT22;11773;52.570;13.052;2022-09-09T04:58:51;15.50;99.90
23207;DHT22;11773;52.570;13.052;2022-09-09T05:01:22;15.40;99.90
23207;DHT22;11773;52.570;13.052;2022-09-09T05:03:54;15.40;99.90
23207;DHT22;11773;52.570;13.052;2022-09-09T05:06:24;15.40;99.90
23207;DHT22;11773;52.570;13.052;2022-09-09T05:08:54;15.40;99.90
23207;DHT22;11773;52.570;13.052;2022-09-09T05:11:26;15.30;99.90
23207;DHT22;11773;52.570;13.052;2022-09-09T05:13:57;15.20;99.90
23207;DHT22;11773;52.570;13.052;2022-09-09T05:16:27;15.40;99.90
23207;DHT22;11773;52.570;13.052;2022-09-09T05:18:57;15.40;99.90
23207;DHT22;11773;52.570;13.052;2022-09-09T05:21:28;15.50;99.90
23207;DHT22;11773;52.570;13.052;2022-09-09T05:23:58;15.60;99.90
23207;DHT22;11773;52.570;13.052;2022-09-09T05:26:29;15.30;99.90
23207;DHT22;11773;52.570;13.052;2022-09-09T05:28:59;15.50;99.90
23207;DHT22;11773;52.570;13.052;2022-09-09T05:31:30;15.30;99.90
23207;DHT22;11773;52.570;13.052;2022-09-09T05:34:01;15.40;99.90
23207;DHT22;11773;52.570;13.052;2022-09-09T05:36:30;15.40;99.90
23207;DHT22;11773;52.570;13.052;2022-09-09T05:39:00;15.60;99.90
23207;DHT22;11773;52.570;13.052;2022-09-09T05:41:29;15.60;99.90
23207;DHT22;11773;52.570;13.052;2022-09-09T05:43:59;15.80;99.90
23207;DHT22;11773;52.570;13.052;2022-09-09T05:46:28;15.70;99.90
23207;DHT22;11773;52.570;13.052;2022-09-09T05:48:58;15.50;99.90
23207;DHT22;11773;52.570;13.052;2022-09-09T05:51:28;15.60;99.90
23207;DHT22;11773;52.570;13.052;2022-09-09T05:53:58;15.60;99.90
23207;DHT22;11773;52.570;13.052;2022-09-09T05:56:28;15.80;99.90
23207;DHT22;11773;52.570;13.052;2022-09-09T05:59:00;15.80;99.90
23207;DHT22;11773;52.570;13.052;2022-09-09T06:01:32;15.90;99.90
23207;DHT22;11773;52.570;13.052;2022-09-09T06:04:04;15.80;99.90
23207;DHT22;11773;52.570;13.052;2022-09-09T06:06:35;15.80;99.90
23207;DHT22;11773;52.570;13.052;2022-09-09T06:09:08;15.90;99.90
23207;DHT22;11773;52.570;13.052;2022-09-09T06:11:39;16.00;99.90
23207;DHT22;11773;52.570;13.052;2022-09-09T06:14:09;16.20;99.90
23207;DHT22;11773;52.570;13.052;2022-09-09T06:16:39;16.60;99.90
23207;DHT22;11773;52.570;13.052;2022-09-09T06:19:10;17.10;99.90
23207;DHT22;11773;52.570;13.052;2022-09-09T06:21:40;17.60;99.90
23207;DHT22;11773;52.570;13.052;2022-09-09T06:24:10;18.10;99.90
23207;DHT22;11773;52.570;13.052;2022-09-09T06:26:41;18.60;99.90
23207;DHT22;11773;52.570;13.052;2022-09-09T06:29:10;18.90;99.90
23207;DHT22;11773;52.570;13.052;2022-09-09T06:31:40;19.20;99.90
23207;DHT22;11773;52.570;13.052;2022-09-09T06:34:10;19.50;99.90
23207;DHT22;11773;52.570;13.052;2022-09-09T06:36:40;19.80;99.90
23207;DHT22;11773;52.570;13.052;2022-09-09T06:39:10;20.20;99.90
23207;DHT22;11773;52.570;13.052;2022-09-09T06:41:41;20.30;99.90
23207;DHT22;11773;52.570;13.052;2022-09-09T06:44:11;20.40;99.90
23207;DHT22;11773;52.570;13.052;2022-09-09T06:46:40;20.30;99.90
23207;DHT22;11773;52.570;13.052;2022-09-09T06:49:10;20.10;99.90
23207;DHT22;11773;52.570;13.052;2022-09-09T06:51:39;19.80;99.90
23207;DHT22;11773;52.570;13.052;2022-09-09T06:54:11;19.80;99.90
23207;DHT22;11773;52.570;13.052;2022-09-09T06:56:42;19.80;99.90
23207;DHT22;11773;52.570;13.052;2022-09-09T06:59:13;19.70;99.90
23207;DHT22;11773;52.570;13.052;2022-09-09T07:01:43;19.60;99.90
23207;DHT22;11773;52.570;13.052;2022-09-09T07:04:16;19.60;99.90
23207;DHT22;11773;52.570;13.052;2022-09-09T07:06:46;19.90;99.90
23207;DHT22;11773;52.570;13.052;2022-09-09T07:09:16;20.20;99.90
23207;DHT22;11773;52.570;13.052;2022-09-09T07:11:48;20.40;99.90
23207;DHT22;11773;52.570;13.052;2022-09-09T07:14:21;20.50;99.90
23207;DHT22;11773;52.570;13.052;2022-09-09T07:16:51;20.60;99.90
23207;DHT22;11773;52.570;13.052;2022-09-09T07:19:22;20.60;99.90
23207;DHT22;11773;52.570;13.052;2022-09-09T07:21:51;20.80;99.90
23207;DHT22;11773;52.570;13.052;2022-09-09T07:24:21;20.80;99.90
23207;DHT22;11773;52.570;13.052;2022-09-09T07:26:51;20.70;99.90
23207;DHT22;11773;52.570;13.052;2022-09-09T07:29:20;20.70;99.90
23207;DHT22;11773;52.570;13.052;2022-09-09T07:31:50;20.60;99.90
23207;DHT22;11773;52.570;13.052;2022-09-09T07:34:19;20.50;99.90
23207;DHT22;11773;52.570;13.052;2022-09-09T07:36:49;20.50;99.90
23207;DHT22;11773;52.570;13.052;2022-09-09T07:39:18;20.40;99.90
23207;DHT22;11773;52.570;13.052;2022-09-09T07:41:48;20.50;99.90
23207;DHT22;11773;52.570;13.052;2022-09-09T07:44:21;20.50;99.90
23207;DHT22;11773;52.570;13.052;2022-09-09T07:46:52;20.70;99.90
23207;DHT22;11773;52.570;13.052;2022-09-09T07:49:22;20.70;99.90
23207;DHT22;11773;52.570;13.052;2022-09-09T07:51:53;20.40;99.90
23207;DHT22;11773;52.570;13.052;2022-09-09T07:54:23;20.60;99.90
23207;DHT22;11773;52.570;13.052;2022-09-09T07:56:53;20.70;99.90
23207;DHT22;11773;52.570;13.052;2022-09-09T07:59:23;20.80;99.90
23207;DHT22;11773;52.570;13.052;2022-09-09T08:01:53;20.80;99.90
23207;DHT22;11773;52.570;13.052;2022-09-09T08:04:24;20.80;99.90
23207;DHT22;11773;52.570;13.052;2022-09-09T08:07:00;20.70;99.90
23207;DHT22;11773;52.570;13.052;2022-09-09T08:09:30;20.60;99.90
23207;DHT22;11773;52.570;13.052;2022-09-09T08:12:01;20.60;99.90
23207;DHT22;11773;52.570;13.052;2022-09-09T08:14:31;20.60;99.90
23207;DHT22;11773;52.570;13.052;2022-09-09T08:17:00;20.90;99.90
23207;DHT22;11773;52.570;13.052;2022-09-09T08:19:31;20.90;99.90
23207;DHT22;11773;52.570;13.052;2022-09-09T08:22:03;21.00;99.90
23207;DHT22;11773;52.570;13.052;2022-09-09T08:24:33;21.20;99.90
23207;DHT22;11773;52.570;13.052;2022-09-09T08:27:03;21.30;99.90
23207;DHT22;11773;52.570;13.052;2022-09-09T08:29:33;21.10;99.90
23207;DHT22;11773;52.570;13.052;2022-09-09T08:32:02;21.30;99.90
23207;DHT22;11773;52.570;13.052;2022-09-09T08:34:32;21.30;99.90
23207;DHT22;11773;52.570;13.052;2022-09-09T08:37:01;21.50;99.90
23207;DHT22;11773;52.570;13.052;2022-09-09T08:39:31;21.40;99.90
23207;DHT22;11773;52.570;13.052;2022-09-09T08:45:23;21.20;99.90
23207;DHT22;11773;52.570;13.052;2022-09-09T08:48:16;21.10;99.90
23207;DHT22;11773;52.570;13.052;2022-09-09T08:50:48;20.90;99.90
23207;DHT22;11773;52.570;13.052;2022-09-09T08:53:25;21.00;99.90
23207;DHT22;11773;52.570;13.052;2022-09-09T08:56:01;21.00;99.90
23207;DHT22;11773;52.570;13.052;2022-09-09T08:58:34;21.20;99.90
23207;DHT22;11773;52.570;13.052;2022-09-09T09:04:28;21.30;99.90
23207;DHT22;11773;52.570;13.052;2022-09-09T09:13:14;21.10;99.90
23207;DHT22;11773;52.570;13.052;2022-09-09T09:15:45;21.00;99.90
23207;DHT22;11773;52.570;13.052;2022-09-09T09:18:17;20.90;99.90
23207;DHT22;11773;52.570;13.052;2022-09-09T09:23:42;21.10;99.90
23207;DHT22;11773;52.570;13.052;2022-09-09T09:26:10;21.10;99.90
23207;DHT22;11773;52.570;13.052;2022-09-09T09:28:40;21.00;99.90
23207;DHT22;11773;52.570;13.052;2022-09-09T09:31:11;21.30;99.90
23207;DHT22;11773;52.570;13.052;2022-09-09T09:36:24;21.40;99.90
23207;DHT22;11773;52.570;13.052;2022-09-09T09:38:58;21.50;99.90
23207;DHT22;11773;52.570;13.052;2022-09-09T09:41:41;21.50;99.90
23207;DHT22;11773;52.570;13.052;2022-09-09T09:44:30;21.50;99.90
23207;DHT22;11773;52.570;13.052;2022-09-09T09:49:59;21.50;99.90
23207;DHT22;11773;52.570;13.052;2022-09-09T09:52:31;21.70;99.90
23207;DHT22;11773;52.570;13.052;2022-09-09T09:55:04;21.90;99.90
23207;DHT22;11773;52.570;13.052;2022-09-09T09:57:36;21.90;99.90
23207;DHT22;11773;52.570;13.052;2022-09-09T10:00:17;21.90;99.90
23207;DHT22;11773;52.570;13.052;2022-09-09T10:02:49;22.10;99.90
23207;DHT22;11773;52.570;13.052;2022-09-09T10:05:22;22.20;99.90
23207;DHT22;11773;52.570;13.052;2022-09-09T10:08:09;22.10;99.90
23207;DHT22;11773;52.570;13.052;2022-09-09T10:19:35;22.40;99.90
23207;DHT22;11773;52.570;13.052;2022-09-09T10:28:17;22.60;99.90
23207;DHT22;11773;52.570;13.052;2022-09-09T10:30:51;22.60;99.90
23207;DHT22;11773;52.570;13.052;2022-09-09T10:33:44;22.70;99.90
23207;DHT22;11773;52.570;13.052;2022-09-09T10:36:16;22.70;99.90
23207;DHT22;11773;52.570;13.052;2022-09-09T10:42:12;22.90;99.90
23207;DHT22;11773;52.570;13.052;2022-09-09T10:45:02;23.00;99.90
23207;DHT22;11773;52.570;13.052;2022-09-09T10:50:39;23.20;99.90
23207;DHT22;11773;52.570;13.052;2022-09-09T10:56:25;23.40;99.90
23207;DHT22;11773;52.570;13.052;2022-09-09T10:59:05;23.30;99.90
23207;DHT22;11773;52.570;13.052;2022-09-09T11:01:57;23.40;99.90
23207;DHT22;11773;52.570;13.052;2022-09-09T11:04:40;23.50;99.90
23207;DHT22;11773;52.570;13.052;2022-09-09T11:07:18;23.20;99.90
23207;DHT22;11773;52.570;13.052;2022-09-09T11:09:53;23.10;99.90
23207;DHT22;11773;52.570;13.052;2022-09-09T11:12:25;23.30;99.90
23207;DHT22;11773;52.570;13.052;2022-09-09T11:17:53;23.40;99.90
23207;DHT22;11773;52.570;13.052;2022-09-09T11:20:26;23.50;99.90
23207;DHT22;11773;52.570;13.052;2022-09-09T11:23:02;23.50;99.90
23207;DHT22;11773;52.570;13.052;2022-09-09T11:25:39;23.60;99.90
23207;DHT22;11773;52.570;13.052;2022-09-09T11:34:37;23.80;99.90
23207;DHT22;11773;52.570;13.052;2022-09-09T11:37:21;23.50;99.90
23207;DHT22;11773;52.570;13.052;2022-09-09T11:42:49;23.50;99.90
23207;DHT22;11773;52.570;13.052;2022-09-09T11:45:32;23.60;99.90
23207;DHT22;11773;52.570;13.052;2022-09-09T11:48:04;23.70;99.90
23207;DHT22;11773;52.570;13.052;2022-09-09T11:50:36;23.70;99.90
23207;DHT22;11773;52.570;13.052;2022-09-09T11:53:21;24.00;99.90
23207;DHT22;11773;52.570;13.052;2022-09-09T11:56:05;24.00;99.90
23207;DHT22;11773;52.570;13.052;2022-09-09T11:58:53;24.00;99.90
23207;DHT22;11773;52.570;13.052;2022-09-09T12:01:37;23.90;99.90
23207;DHT22;11773;52.570;13.052;2022-09-09T12:06:59;24.10;99.90
23207;DHT22;11773;52.570;13.052;2022-09-09T12:10:52;24.20;99.90
23207;DHT22;11773;52.570;13.052;2022-09-09T12:12:37;24.20;99.90
23207;DHT22;11773;52.570;13.052;2022-09-09T12:17:45;24.00;99.90
23207;DHT22;11773;52.570;13.052;2022-09-09T12:20:35;23.90;99.90
23207;DHT22;11773;52.570;13.052;2022-09-09T12:23:14;23.80;99.90
23207;DHT22;11773;52.570;13.052;2022-09-09T12:28:41;23.80;99.90
23207;DHT22;11773;52.570;13.052;2022-09-09T12:31:26;24.00;99.90
23207;DHT22;11773;52.570;13.052;2022-09-09T12:39:58;24.20;99.90
23207;DHT22;11773;52.570;13.052;2022-09-09T12:42:31;24.10;99.90
23207;DHT22;11773;52.570;13.052;2022-09-09T12:45:15;24.20;99.90
23207;DHT22;11773;52.570;13.052;2022-09-09T12:47:44;24.20;99.90
23207;DHT22;11773;52.570;13.052;2022-09-09T12:50:19;24.10;99.90
23207;DHT22;11773;52.570;13.052;2022-09-09T12:52:58;24.10;99.90
23207;DHT22;11773;52.570;13.052;2022-09-09T12:55:32;24.20;99.90
23207;DHT22;11773;52.570;13.052;2022-09-09T12:58:04;24.20;99.90
23207;DHT22;11773;52.570;13.052;2022-09-09T13:00:35;23.90;99.90
23207;DHT22;11773;52.570;13.052;2022-09-09T13:03:20;24.00;99.90
23207;DHT22;11773;52.570;13.052;2022-09-09T13:05:50;24.00;99.90
23207;DHT22;11773;52.570;13.052;2022-09-09T13:08:20;24.00;99.90
23207;DHT22;11773;52.570;13.052;2022-09-09T13:11:03;24.10;99.90
23207;DHT22;11773;52.570;13.052;2022-09-09T13:13:36;24.20;99.90
23207;DHT22;11773;52.570;13.052;2022-09-09T13:16:22;24.10;99.90
23207;DHT22;11773;52.570;13.052;2022-09-09T13:19:16;23.80;99.90
23207;DHT22;11773;52.570;13.052;2022-09-09T13:21:45;23.90;99.90
23207;DHT22;11773;52.570;13.052;2022-09-09T13:24:33;23.90;99.90
23207;DHT22;11773;52.570;13.052;2022-09-09T13:27:05;23.90;99.90
23207;DHT22;11773;52.570;13.052;2022-09-09T13:29:55;24.00;99.90
23207;DHT22;11773;52.570;13.052;2022-09-09T13:32:25;23.90;99.90
23207;DHT22;11773;52.570;13.052;2022-09-09T13:34:58;23.90;99.90
23207;DHT22;11773;52.570;13.052;2022-09-09T13:37:37;23.90;99.90
23207;DHT22;11773;52.570;13.052;2022-09-09T13:40:20;23.80;99.90
23207;DHT22;11773;52.570;13.052;2022-09-09T13:42:55;23.70;99.90
23207;DHT22;11773;52.570;13.052;2022-09-09T13:45:26;23.70;99.90
23207;DHT22;11773;52.570;13.052;2022-09-09T13:47:55;23.60;99.90
23207;DHT22;11773;52.570;13.052;2022-09-09T13:50:27;23.50;99.90
23207;DHT22;11773;52.570;13.052;2022-09-09T13:52:58;23.50;99.90
23207;DHT22;11773;52.570;13.052;2022-09-09T13:55:29;23.60;99.90
23207;DHT22;11773;52.570;13.052;2022-09-09T13:58:00;23.50;99.90
23207;DHT22;11773;52.570;13.052;2022-09-09T14:00:33;23.50;99.90
23207;DHT22;11773;52.570;13.052;2022-09-09T14:03:03;23.40;99.90
23207;DHT22;11773;52.570;13.052;2022-09-09T14:05:33;23.50;99.90
23207;DHT22;11773;52.570;13.052;2022-09-09T14:08:07;23.30;99.90
23207;DHT22;11773;52.570;13.052;2022-09-09T14:10:38;23.30;99.90
23207;DHT22;11773;52.570;13.052;2022-09-09T14:13:08;23.20;99.90
23207;DHT22;11773;52.570;13.052;2022-09-09T14:15:38;23.20;99.90
23207;DHT22;11773;52.570;13.052;2022-09-09T14:18:10;23.20;99.90
23207;DHT22;11773;52.570;13.052;2022-09-09T14:20:41;23.30;99.90
23207;DHT22;11773;52.570;13.052;2022-09-09T14:23:11;23.40;99.90
23207;DHT22;11773;52.570;13.052;2022-09-09T14:25:43;23.40;99.90
23207;DHT22;11773;52.570;13.052;2022-09-09T14:28:13;23.20;99.90
23207;DHT22;11773;52.570;13.052;2022-09-09T14:30:44;23.40;99.90
23207;DHT22;11773;52.570;13.052;2022-09-09T14:33:15;23.40;99.90
23207;DHT22;11773;52.570;13.052;2022-09-09T14:35:45;23.30;99.90
23207;DHT22;11773;52.570;13.052;2022-09-09T14:38:14;23.40;99.90
23207;DHT22;11773;52.570;13.052;2022-09-09T14:40:45;23.50;99.90
23207;DHT22;11773;52.570;13.052;2022-09-09T14:43:15;23.50;99.90
23207;DHT22;11773;52.570;13.052;2022-09-09T14:45:45;23.40;99.90
23207;DHT22;11773;52.570;13.052;2022-09-09T14:48:15;23.40;99.90
23207;DHT22;11773;52.570;13.052;2022-09-09T14:50:45;23.50;99.90
23207;DHT22;11773;52.570;13.052;2022-09-09T14:53:16;23.40;99.90
23207;DHT22;11773;52.570;13.052;2022-09-09T14:55:46;23.50;99.90
23207;DHT22;11773;52.570;13.052;2022-09-09T14:58:15;23.50;99.90
23207;DHT22;11773;52.570;13.052;2022-09-09T15:00:45;23.40;99.90
23207;DHT22;11773;52.570;13.052;2022-09-09T15:03:14;23.40;99.90
23207;DHT22;11773;52.570;13.052;2022-09-09T15:05:44;23.50;99.90
23207;DHT22;11773;52.570;13.052;2022-09-09T15:08:15;23.50;99.90
23207;DHT22;11773;52.570;13.052;2022-09-09T15:10:45;23.50;99.90
23207;DHT22;11773;52.570;13.052;2022-09-09T15:13:15;23.60;99.90
23207;DHT22;11773;52.570;13.052;2022-09-09T15:15:45;23.50;99.90
23207;DHT22;11773;52.570;13.052;2022-09-09T15:18:14;23.60;99.90
23207;DHT22;11773;52.570;13.052;2022-09-09T15:20:47;23.50;99.90
23207;DHT22;11773;52.570;13.052;2022-09-09T15:23:16;23.40;99.90
23207;DHT22;11773;52.570;13.052;2022-09-09T15:25:56;23.20;99.90
23207;DHT22;11773;52.570;13.052;2022-09-09T15:28:25;23.20;99.90
23207;DHT22;11773;52.570;13.052;2022-09-09T15:30:55;23.10;99.90
23207;DHT22;11773;52.570;13.052;2022-09-09T15:33:25;23.20;99.90
23207;DHT22;11773;52.570;13.052;2022-09-09T15:35:56;23.10;99.90
23207;DHT22;11773;52.570;13.052;2022-09-09T15:38:26;23.10;99.90
23207;DHT22;11773;52.570;13.052;2022-09-09T15:40:55;23.00;99.90
23207;DHT22;11773;52.570;13.052;2022-09-09T15:43:26;22.90;99.90
23207;DHT22;11773;52.570;13.052;2022-09-09T15:45:58;22.90;99.90
23207;DHT22;11773;52.570;13.052;2022-09-09T15:48:32;22.90;99.90
23207;DHT22;11773;52.570;13.052;2022-09-09T15:51:03;22.70;99.90
23207;DHT22;11773;52.570;13.052;2022-09-09T15:53:34;22.70;99.90
23207;DHT22;11773;52.570;13.052;2022-09-09T15:56:05;22.60;99.90
23207;DHT22;11773;52.570;13.052;2022-09-09T15:58:36;22.70;99.90
23207;DHT22;11773;52.570;13.052;2022-09-09T16:01:09;22.70;99.90
23207;DHT22;11773;52.570;13.052;2022-09-09T16:03:44;22.70;99.90
23207;DHT22;11773;52.570;13.052;2022-09-09T16:06:15;22.70;99.90
23207;DHT22;11773;52.570;13.052;2022-09-09T16:08:51;22.60;99.90
23207;DHT22;11773;52.570;13.052;2022-09-09T16:11:30;22.50;99.90
23207;DHT22;11773;52.570;13.052;2022-09-09T16:14:03;22.40;99.90
23207;DHT22;11773;52.570;13.052;2022-09-09T16:16:34;22.40;99.90
23207;DHT22;11773;52.570;13.052;2022-09-09T16:19:06;22.30;99.90
23207;DHT22;11773;52.570;13.052;2022-09-09T16:21:40;22.30;99.90
23207;DHT22;11773;52.570;13.052;2022-09-09T16:24:13;22.40;99.90
23207;DHT22;11773;52.570;13.052;2022-09-09T16:26:48;22.30;99.90
23207;DHT22;11773;52.570;13.052;2022-09-09T16:29:19;22.20;99.90
23207;DHT22;11773;52.570;13.052;2022-09-09T16:31:50;22.40;99.90
23207;DHT22;11773;52.570;13.052;2022-09-09T16:34:20;22.30;99.90
23207;DHT22;11773;52.570;13.052;2022-09-09T16:36:50;22.20;99.90
23207;DHT22;11773;52.570;13.052;2022-09-09T16:39:20;22.10;99.90
23207;DHT22;11773;52.570;13.052;2022-09-09T16:41:50;22.10;99.90
23207;DHT22;11773;52.570;13.052;2022-09-09T16:44:20;21.90;99.90
23207;DHT22;11773;52.570;13.052;2022-09-09T16:46:50;21.90;99.90
23207;DHT22;11773;52.570;13.052;2022-09-09T16:49:22;21.90;99.90
23207;DHT22;11773;52.570;13.052;2022-09-09T16:51:51;21.80;99.90
23207;DHT22;11773;52.570;13.052;2022-09-09T16:54:21;21.70;99.90
23207;DHT22;11773;52.570;13.052;2022-09-09T16:56:52;21.60;99.90
23207;DHT22;11773;52.570;13.052;2022-09-09T16:59:22;21.70;99.90
23207;DHT22;11773;52.570;13.052;2022-09-09T17:01:52;21.70;99.90
23207;DHT22;11773;52.570;13.052;2022-09-09T17:04:25;21.70;99.90
23207;DHT22;11773;52.570;13.052;2022-09-09T17:06:56;21.60;99.90
23207;DHT22;11773;52.570;13.052;2022-09-09T17:09:27;21.60;99.90
23207;DHT22;11773;52.570;13.052;2022-09-09T17:11:57;21.50;99.90
23207;DHT22;11773;52.570;13.052;2022-09-09T17:14:27;21.40;99.90
23207;DHT22;11773;52.570;13.052;2022-09-09T17:16:58;21.50;99.90
23207;DHT22;11773;52.570;13.052;2022-09-09T17:19:30;21.40;99.90
23207;DHT22;11773;52.570;13.052;2022-09-09T17:22:00;21.40;99.90
23207;DHT22;11773;52.570;13.052;2022-09-09T17:24:31;21.40;99.90
23207;DHT22;11773;52.570;13.052;2022-09-09T17:27:02;21.30;99.90